Time;durP1;ratioP1;P1;durP2;ratioP2;P2;SDS_P1;SDS_P2;PMS_P1;PMS_P2;Temp;Humidity;BMP_temperature;BMP_pressure;BME280_temperature;BME280_humidity;BME280_pressure;Samples;Min_cycle;Max_cycle;Signal;HPM_P1;HPM_P2
2022/12/01 00:02:01;;;;;;;;;;;;;;;;;;5013553;28;20475;-72
2022/12/01 00:04:26;;;;;;;;;;;;;;;;;;5015544;28;19912;-71
2022/12/01 00:06:51;;;;;;;;;;;;;;;;;;5013894;28;19913;-71
2022/12/01 00:12:00;;;;;;;;;;;;;;;;;;5014507;28;20315;-72
2022/12/01 00:14:25;;;;;;;;;;;;;;;;;;5018117;28;20287;-72
2022/12/01 00:16:50;;;;;;;;;;;;;;;;;;5013869;28;20303;-70
2022/12/01 00:19:16;;;;;;;;;;;;;;;;;;5016012;28;19937;-79
2022/12/01 00:21:41;;;;;;;;;;;;;;;;;;5018003;28;20387;-79
2022/12/01 00:24:06;;;;;;;;;;;;;;;;;;5014023;28;19924;-78
2022/12/01 00:26:32;;;;;;;;;;;;;;;;;;5017214;28;19924;-80
2022/12/01 00:28:57;;;;;;;;;;;;;;;;;;5013530;28;19921;-79
2022/12/01 00:31:22;;;;;;;;;;;;;;;;;;5018055;28;20012;-79
2022/12/01 00:33:47;;;;;;;;;;;;;;;;;;5013529;28;20454;-75
2022/12/01 00:36:12;;;;;;;;;;;;;;;;;;5019688;28;19913;-75
2022/12/01 00:38:37;;;;;;;;;;;;;;;;;;5016256;28;20454;-75
2022/12/01 00:41:02;;;;;;;;;;;;;;;;;;5017231;28;19940;-74
2022/12/01 00:43:27;;;;;;;;;;;;;;;;;;5013149;28;19923;-74
2022/12/01 00:45:53;;;;;;;;;;;;;;;;;;5019165;28;19935;-74
2022/12/01 00:48:19;;;;;;;;;;;;;;;;;;5036041;28;20343;-74
2022/12/01 00:50:44;;;;;;;;;;;;;;;;;;5015021;28;19917;-74
2022/12/01 00:53:09;;;;;;;;;;;;;;;;;;5019270;28;19913;-70
2022/12/01 00:55:34;;;;;;;;;;;;;;;;;;5019909;28;19913;-76
2022/12/01 00:57:59;;;;;;;;;;;;;;;;;;5020547;28;19967;-76
2022/12/01 01:00:24;;;;;;;;;;;;;;;;;;5013877;28;20067;-76
2022/12/01 01:02:49;;;;;;;;;;;;;;;;;;5012923;28;19944;-76
2022/12/01 01:05:14;;;;;;;;;;;;;;;;;;5009642;28;19967;-76
2022/12/01 01:07:39;;;;;;;;;;;;;;;;;;5013402;28;19995;-76
2022/12/01 01:10:05;;;;;;;;;;;;;;;;;;5013267;28;19945;-79
2022/12/01 01:12:30;;;;;;;;;;;;;;;;;;5012948;28;19916;-70
2022/12/01 01:14:55;;;;;;;;;;;;;;;;;;5009657;28;19921;-79
2022/12/01 01:17:20;;;;;;;;;;;;;;;;;;5010849;28;19914;-79
2022/12/01 01:19:45;;;;;;;;;;;;;;;;;;5012453;28;19917;-79
2022/12/01 01:22:10;;;;;;;;;;;;;;;;;;5013464;28;19917;-79
2022/12/01 01:24:35;;;;;;;;;;;;;;;;;;5021056;28;19947;-79
2022/12/01 01:27:00;;;;;;;;;;;;;;;;;;5013902;28;19914;-79
2022/12/01 01:29:25;;;;;;;;;;;;;;;;;;5013838;28;19917;-72
2022/12/01 01:31:51;;;;;;;;;;;;;;;;;;5010450;28;19936;-74
2022/12/01 01:34:16;;;;;;;;;;;;;;;;;;5009774;28;19909;-74
2022/12/01 01:36:41;;;;;;;;;;;;;;;;;;5026730;28;19910;-76
2022/12/01 01:39:06;;;;;;;;;;;;;;;;;;5012722;28;19917;-75
2022/12/01 01:41:31;;;;;;;;;;;;;;;;;;5010824;28;20007;-76
2022/12/01 01:43:56;;;;;;;;;;;;;;;;;;5012441;28;19939;-76
2022/12/01 01:46:21;;;;;;;;;;;;;;;;;;5009139;28;19922;-74
2022/12/01 01:48:47;;;;;;;;;;;;;;;;;;5010229;28;19930;-71
2022/12/01 01:51:12;;;;;;;;;;;;;;;;;;5008996;28;19991;-73
2022/12/01 01:53:37;;;;;;;;;;;;;;;;;;5007846;28;19913;-73
2022/12/01 01:56:02;;;;;;;;;;;;;;;;;;5019745;28;19917;-72
2022/12/01 01:58:27;;;;;;;;;;;;;;;;;;5014091;28;19921;-73
2022/12/01 02:00:52;;;;;;;;;;;;;;;;;;5012706;28;19933;-73
2022/12/01 02:03:17;;;;;;;;;;;;;;;;;;5009758;28;19918;-72
2022/12/01 02:05:46;;;;;;;;;;;;;;;;;;5011597;28;20004;-78
2022/12/01 02:08:11;;;;;;;;;;;;;;;;;;5011905;28;20004;-72
2022/12/01 02:10:36;;;;;;;;;;;;;;;;;;5015914;28;19957;-72
2022/12/01 02:13:01;;;;;;;;;;;;;;;;;;5013632;28;19944;-72
2022/12/01 02:15:26;;;;;;;;;;;;;;;;;;5015231;28;19999;-72
2022/12/01 02:17:51;;;;;;;;;;;;;;;;;;5015365;28;19960;-70
2022/12/01 02:20:16;;;;;;;;;;;;;;;;;;5015370;28;20356;-72
2022/12/01 02:22:41;;;;;;;;;;;;;;;;;;5018256;28;20269;-71
2022/12/01 02:25:07;;;;;;;;;;;;;;;;;;5019469;28;20032;-72
2022/12/01 02:27:32;;;;;;;;;;;;;;;;;;5023358;28;19951;-72
2022/12/01 02:29:57;;;;;;;;;;;;;;;;;;5019188;28;19918;-72
2022/12/01 02:32:22;;;;;;;;;;;;;;;;;;5015528;28;19959;-72
2022/12/01 02:34:47;;;;;;;;;;;;;;;;;;5013934;28;19967;-72
2022/12/01 02:37:12;;;;;;;;;;;;;;;;;;5015543;28;19909;-72
2022/12/01 02:39:37;;;;;;;;;;;;;;;;;;5015679;28;19909;-72
2022/12/01 02:42:03;;;;;;;;;;;;;;;;;;5015938;28;20369;-77
2022/12/01 02:44:28;;;;;;;;;;;;;;;;;;5018261;28;19928;-70
2022/12/01 02:46:53;;;;;;;;;;;;;;;;;;5010889;28;20376;-72
2022/12/01 02:49:18;;;;;;;;;;;;;;;;;;5012440;28;20360;-71
2022/12/01 02:51:43;;;;;;;;;;;;;;;;;;5014572;28;19964;-70
2022/12/01 02:54:08;;;;;;;;;;;;;;;;;;5015275;28;20010;-71
2022/12/01 02:56:33;;;;;;;;;;;;;;;;;;5015669;28;19917;-71
2022/12/01 02:58:59;;;;;;;;;;;;;;;;;;5018251;28;19940;-70
2022/12/01 03:01:24;;;;;;;;;;;;;;;;;;5019585;28;20007;-77
2022/12/01 03:03:49;;;;;;;;;;;;;;;;;;5013226;28;20329;-72
2022/12/01 03:06:14;;;;;;;;;;;;;;;;;;5017463;28;19914;-71
2022/12/01 03:08:44;;;;;;;;;;;;;;;;;;5014030;28;19917;-72
2022/12/01 03:11:25;;;;;;;;;;;;;;;;;;5014658;28;19956;-72
2022/12/01 03:13:50;;;;;;;;;;;;;;;;;;5014991;28;20029;-72
2022/12/01 03:16:15;;;;;;;;;;;;;;;;;;5015190;28;20257;-71
2022/12/01 03:18:41;;;;;;;;;;;;;;;;;;5014947;28;20398;-72
2022/12/01 03:21:06;;;;;;;;;;;;;;;;;;5018260;28;20363;-74
2022/12/01 03:23:31;;;;;;;;;;;;;;;;;;5015131;28;20275;-77
2022/12/01 03:25:56;;;;;;;;;;;;;;;;;;5014489;28;19936;-77
2022/12/01 03:28:21;;;;;;;;;;;;;;;;;;5012983;28;20635;-78
2022/12/01 03:30:46;;;;;;;;;;;;;;;;;;5016392;28;19909;-77
2022/12/01 03:33:12;;;;;;;;;;;;;;;;;;5019638;28;20012;-77
2022/12/01 03:35:37;;;;;;;;;;;;;;;;;;5012677;28;19921;-77
2022/12/01 03:38:02;;;;;;;;;;;;;;;;;;5012163;28;19917;-73
2022/12/01 03:40:27;;;;;;;;;;;;;;;;;;5017294;28;19922;-71
2022/12/01 03:42:52;;;;;;;;;;;;;;;;;;5013478;28;19949;-71
2022/12/01 03:45:17;;;;;;;;;;;;;;;;;;5019819;28;19956;-72
2022/12/01 03:47:42;;;;;;;;;;;;;;;;;;5013828;28;19913;-71
2022/12/01 03:50:10;;;;;;;;;;;;;;;;;;5011027;28;19925;-72
2022/12/01 03:52:35;;;;;;;;;;;;;;;;;;5013734;28;19917;-72
2022/12/01 03:55:00;;;;;;;;;;;;;;;;;;5018250;28;19920;-71
2022/12/01 03:57:25;;;;;;;;;;;;;;;;;;5016354;28;20000;-72
2022/12/01 03:59:50;;;;;;;;;;;;;;;;;;5013811;28;20000;-72
2022/12/01 04:02:15;;;;;;;;;;;;;;;;;;5022771;28;19956;-72
2022/12/01 04:04:40;;;;;;;;;;;;;;;;;;5025865;28;20000;-72
2022/12/01 04:07:06;;;;;;;;;;;;;;;;;;5008641;28;20430;-73
2022/12/01 04:09:31;;;;;;;;;;;;;;;;;;5013247;28;19984;-72
2022/12/01 04:14:40;;;;;;;;;;;;;;;;;;5015199;28;19917;-75
2022/12/01 04:17:05;;;;;;;;;;;;;;;;;;5013414;28;19913;-72
2022/12/01 04:19:30;;;;;;;;;;;;;;;;;;5015374;28;19922;-72
2022/12/01 04:21:55;;;;;;;;;;;;;;;;;;5013288;28;20353;-72
2022/12/01 04:24:21;;;;;;;;;;;;;;;;;;5016522;28;19940;-71
2022/12/01 04:26:46;;;;;;;;;;;;;;;;;;5013777;28;19917;-72
2022/12/01 04:29:11;;;;;;;;;;;;;;;;;;5018444;28;20344;-72
2022/12/01 04:31:36;;;;;;;;;;;;;;;;;;5013999;28;19913;-72
2022/12/01 04:34:01;;;;;;;;;;;;;;;;;;5013097;28;19949;-79
2022/12/01 04:36:26;;;;;;;;;;;;;;;;;;5016594;28;20008;-79
2022/12/01 04:38:51;;;;;;;;;;;;;;;;;;5011581;28;20011;-77
2022/12/01 04:41:16;;;;;;;;;;;;;;;;;;5009583;28;20017;-78
2022/12/01 04:43:42;;;;;;;;;;;;;;;;;;5010953;28;20016;-78
2022/12/01 04:46:07;;;;;;;;;;;;;;;;;;5009560;28;20004;-77
2022/12/01 04:48:32;;;;;;;;;;;;;;;;;;5012123;28;20361;-77
2022/12/01 04:50:57;;;;;;;;;;;;;;;;;;5008886;28;19913;-72
2022/12/01 04:53:22;;;;;;;;;;;;;;;;;;5008590;28;19927;-71
2022/12/01 04:55:47;;;;;;;;;;;;;;;;;;5011599;28;20383;-72
2022/12/01 04:58:12;;;;;;;;;;;;;;;;;;5009065;28;19936;-71
2022/12/01 05:00:37;;;;;;;;;;;;;;;;;;5009080;28;19933;-72
2022/12/01 05:03:03;;;;;;;;;;;;;;;;;;5013001;28;19913;-71
2022/12/01 05:05:28;;;;;;;;;;;;;;;;;;5011470;28;20363;-72
2022/12/01 05:07:53;;;;;;;;;;;;;;;;;;5018397;28;19980;-69
2022/12/01 05:10:18;;;;;;;;;;;;;;;;;;5011227;28;20009;-76
2022/12/01 05:12:45;;;;;;;;;;;;;;;;;;5011400;28;20348;-71
2022/12/01 05:15:10;;;;;;;;;;;;;;;;;;5008732;28;19917;-71
2022/12/01 05:17:35;;;;;;;;;;;;;;;;;;5026056;28;19936;-71
2022/12/01 05:22:44;;;;;;;;;;;;;;;;;;5011214;28;19921;-71
2022/12/01 05:25:09;;;;;;;;;;;;;;;;;;5010572;28;19924;-71
2022/12/01 05:27:34;;;;;;;;;;;;;;;;;;5006849;28;19913;-70
2022/12/01 05:29:59;;;;;;;;;;;;;;;;;;5011146;28;19921;-77
2022/12/01 05:32:24;;;;;;;;;;;;;;;;;;5010642;28;19914;-72
2022/12/01 05:34:49;;;;;;;;;;;;;;;;;;5009144;28;19917;-74
2022/12/01 05:37:14;;;;;;;;;;;;;;;;;;5007448;28;19928;-73
2022/12/01 05:39:39;;;;;;;;;;;;;;;;;;5015954;28;19949;-72
2022/12/01 05:42:04;;;;;;;;;;;;;;;;;;5009478;28;20406;-72
2022/12/01 05:44:30;;;;;;;;;;;;;;;;;;5011209;28;19913;-72
2022/12/01 05:46:55;;;;;;;;;;;;;;;;;;5011537;28;19913;-77
2022/12/01 05:49:20;;;;;;;;;;;;;;;;;;5011105;28;19920;-73
2022/12/01 05:51:45;;;;;;;;;;;;;;;;;;5012155;28;19917;-71
2022/12/01 05:54:10;;;;;;;;;;;;;;;;;;5012324;28;19920;-71
2022/12/01 05:56:35;;;;;;;;;;;;;;;;;;5015892;28;19918;-74
2022/12/01 05:59:00;;;;;;;;;;;;;;;;;;5012812;28;20288;-73
2022/12/01 06:01:26;;;;;;;;;;;;;;;;;;5011254;28;19921;-74
2022/12/01 06:03:51;;;;;;;;;;;;;;;;;;5017381;28;20276;-72
2022/12/01 06:06:16;;;;;;;;;;;;;;;;;;5011740;28;20006;-72
2022/12/01 06:08:41;;;;;;;;;;;;;;;;;;5012626;28;19917;-72
2022/12/01 06:11:06;;;;;;;;;;;;;;;;;;5014951;28;19948;-73
2022/12/01 06:13:31;;;;;;;;;;;;;;;;;;5022439;28;19917;-74
2022/12/01 06:15:56;;;;;;;;;;;;;;;;;;5015429;28;20020;-72
2022/12/01 06:18:21;;;;;;;;;;;;;;;;;;5014627;28;19953;-72
2022/12/01 06:20:47;;;;;;;;;;;;;;;;;;5011793;28;20007;-73
2022/12/01 06:23:12;;;;;;;;;;;;;;;;;;5015706;28;19917;-73
2022/12/01 06:25:37;;;;;;;;;;;;;;;;;;5015016;28;19917;-71
2022/12/01 06:28:02;;;;;;;;;;;;;;;;;;5034431;28;20478;-73
2022/12/01 06:30:27;;;;;;;;;;;;;;;;;;5011486;28;20315;-74
2022/12/01 06:32:52;;;;;;;;;;;;;;;;;;5018693;28;19917;-73
2022/12/01 06:35:17;;;;;;;;;;;;;;;;;;5010822;28;20069;-73
2022/12/01 06:37:42;;;;;;;;;;;;;;;;;;5016046;28;19917;-74
2022/12/01 06:40:08;;;;;;;;;;;;;;;;;;5014866;28;20411;-73
2022/12/01 06:42:33;;;;;;;;;;;;;;;;;;5013577;28;19966;-72
2022/12/01 06:44:58;;;;;;;;;;;;;;;;;;5020488;28;20811;-75
2022/12/01 06:47:23;;;;;;;;;;;;;;;;;;5011583;28;19922;-75
2022/12/01 06:49:48;;;;;;;;;;;;;;;;;;5011795;28;19913;-76
2022/12/01 06:52:13;;;;;;;;;;;;;;;;;;5010871;28;19936;-76
2022/12/01 06:54:38;;;;;;;;;;;;;;;;;;5012967;28;19914;-74
2022/12/01 06:57:04;;;;;;;;;;;;;;;;;;5015583;28;19914;-73
2022/12/01 06:59:29;;;;;;;;;;;;;;;;;;5012214;28;19922;-73
2022/12/01 07:01:56;;;;;;;;;;;;;;;;;;5011432;28;19955;-73
2022/12/01 07:04:21;;;;;;;;;;;;;;;;;;5014662;28;20012;-72
2022/12/01 07:06:46;;;;;;;;;;;;;;;;;;5009737;28;20380;-71
2022/12/01 07:09:11;;;;;;;;;;;;;;;;;;5010452;28;20280;-62
2022/12/01 07:11:37;;;;;;;;;;;;;;;;;;5017610;28;19936;-62
2022/12/01 07:14:02;;;;;;;;;;;;;;;;;;5009827;28;20008;-74
2022/12/01 07:16:27;;;;;;;;;;;;;;;;;;5020201;28;19913;-72
2022/12/01 07:18:52;;;;;;;;;;;;;;;;;;5012666;28;20368;-71
2022/12/01 07:21:18;;;;;;;;;;;;;;;;;;5005105;28;20398;-71
2022/12/01 07:23:43;;;;;;;;;;;;;;;;;;5012809;28;19920;-71
2022/12/01 07:26:08;;;;;;;;;;;;;;;;;;5014152;28;19922;-75
2022/12/01 07:28:33;;;;;;;;;;;;;;;;;;5013269;28;19959;-73
2022/12/01 07:30:58;;;;;;;;;;;;;;;;;;5013155;28;20037;-72
2022/12/01 07:33:23;;;;;;;;;;;;;;;;;;5012330;28;19963;-71
2022/12/01 07:35:48;;;;;;;;;;;;;;;;;;5012611;28;19917;-72
2022/12/01 07:38:13;;;;;;;;;;;;;;;;;;5012147;28;19913;-71
2022/12/01 07:40:39;;;;;;;;;;;;;;;;;;5010831;28;19924;-69
2022/12/01 07:43:04;;;;;;;;;;;;;;;;;;5010616;28;20018;-70
2022/12/01 07:45:29;;;;;;;;;;;;;;;;;;5015519;28;19956;-71
2022/12/01 07:47:54;;;;;;;;;;;;;;;;;;5020484;28;19905;-71
2022/12/01 07:50:19;;;;;;;;;;;;;;;;;;5011156;28;19913;-71
2022/12/01 07:52:44;;;;;;;;;;;;;;;;;;5011483;28;19976;-71
2022/12/01 07:55:09;;;;;;;;;;;;;;;;;;5010007;28;19960;-71
2022/12/01 07:57:34;;;;;;;;;;;;;;;;;;5014719;28;19921;-72
2022/12/01 08:00:00;;;;;;;;;;;;;;;;;;5017749;28;19928;-72
2022/12/01 08:02:25;;;;;;;;;;;;;;;;;;5011850;28;19925;-71
2022/12/01 08:04:51;;;;;;;;;;;;;;;;;;5012673;28;19914;-72
2022/12/01 08:07:16;;;;;;;;;;;;;;;;;;5014431;28;19921;-72
2022/12/01 08:09:41;;;;;;;;;;;;;;;;;;5011942;28;19922;-72
2022/12/01 08:12:06;;;;;;;;;;;;;;;;;;5016098;28;19971;-74
2022/12/01 08:14:31;;;;;;;;;;;;;;;;;;5010992;28;19916;-70
2022/12/01 08:16:56;;;;;;;;;;;;;;;;;;5010567;28;20356;-72
2022/12/01 08:19:21;;;;;;;;;;;;;;;;;;5015827;28;19906;-72
2022/12/01 08:21:47;;;;;;;;;;;;;;;;;;5015425;28;19961;-70
2022/12/01 08:24:12;;;;;;;;;;;;;;;;;;5010171;28;19910;-73
2022/12/01 08:26:37;;;;;;;;;;;;;;;;;;5011171;28;19921;-72
2022/12/01 08:29:02;;;;;;;;;;;;;;;;;;5011208;28;19963;-71
2022/12/01 08:31:27;;;;;;;;;;;;;;;;;;5011327;28;19922;-72
2022/12/01 08:33:52;;;;;;;;;;;;;;;;;;5012652;28;19909;-70
2022/12/01 08:36:17;;;;;;;;;;;;;;;;;;5012952;28;19974;-71
2022/12/01 08:38:43;;;;;;;;;;;;;;;;;;5009422;28;19913;-72
2022/12/01 08:41:08;;;;;;;;;;;;;;;;;;5014111;28;20012;-72
2022/12/01 08:43:38;;;;;;;;;;;;;;;;;;5008568;28;19914;-72
2022/12/01 08:46:03;;;;;;;;;;;;;;;;;;5013270;28;19913;-72
2022/12/01 08:48:28;;;;;;;;;;;;;;;;;;5010600;28;20000;-70
2022/12/01 08:50:54;;;;;;;;;;;;;;;;;;5012421;28;19940;-77
2022/12/01 08:53:19;;;;;;;;;;;;;;;;;;5016947;28;19917;-71
2022/12/01 08:55:44;;;;;;;;;;;;;;;;;;5008853;28;19920;-71
2022/12/01 08:58:09;;;;;;;;;;;;;;;;;;5009932;28;19914;-71
2022/12/01 09:00:34;;;;;;;;;;;;;;;;;;5014027;28;19924;-72
2022/12/01 09:02:59;;;;;;;;;;;;;;;;;;5009017;28;19913;-71
2022/12/01 09:05:24;;;;;;;;;;;;;;;;;;5012158;28;20023;-70
2022/12/01 09:08:30;;;;;;;;;;;;;;;;;;5010261;28;20004;-71
2022/12/01 09:10:34;;;;;;;;;;;;;;;;;;5013946;28;19916;-70
2022/12/01 09:12:59;;;;;;;;;;;;;;;;;;5009204;28;19921;-71
2022/12/01 09:15:25;;;;;;;;;;;;;;;;;;5008934;28;19930;-71
2022/12/01 09:17:50;;;;;;;;;;;;;;;;;;5009106;28;20003;-72
2022/12/01 09:20:15;;;;;;;;;;;;;;;;;;5009328;28;20032;-72
2022/12/01 09:22:40;;;;;;;;;;;;;;;;;;5015625;28;20203;-71
2022/12/01 09:25:07;;;;;;;;;;;;;;;;;;5017909;28;19921;-70
2022/12/01 09:27:32;;;;;;;;;;;;;;;;;;5011504;28;19922;-71
2022/12/01 09:29:57;;;;;;;;;;;;;;;;;;5007972;28;20047;-70
2022/12/01 09:32:22;;;;;;;;;;;;;;;;;;5007918;28;20024;-70
2022/12/01 09:34:47;;;;;;;;;;;;;;;;;;5010253;28;20371;-70
2022/12/01 09:37:12;;;;;;;;;;;;;;;;;;5009596;28;19920;-69
2022/12/01 09:39:37;;;;;;;;;;;;;;;;;;5011284;28;19984;-72
2022/12/01 09:42:02;;;;;;;;;;;;;;;;;;5008831;28;19917;-70
2022/12/01 09:44:29;;;;;;;;;;;;;;;;;;5011392;28;20364;-71
2022/12/01 09:46:54;;;;;;;;;;;;;;;;;;5008923;28;20403;-71
2022/12/01 09:49:19;;;;;;;;;;;;;;;;;;5012471;28;20431;-86
2022/12/01 09:51:44;;;;;;;;;;;;;;;;;;5009160;28;20004;-82
2022/12/01 09:54:09;;;;;;;;;;;;;;;;;;5015252;28;19932;-86
2022/12/01 09:56:34;;;;;;;;;;;;;;;;;;5024109;28;19913;-80
2022/12/01 09:58:59;;;;;;;;;;;;;;;;;;5011374;28;19913;-85
2022/12/01 10:01:24;;;;;;;;;;;;;;;;;;5008793;28;19925;-84
2022/12/01 10:03:50;;;;;;;;;;;;;;;;;;5011613;28;19920;-70
2022/12/01 10:06:18;;;;;;;;;;;;;;;;;;5013069;28;19913;-70
2022/12/01 10:08:43;;;;;;;;;;;;;;;;;;5011565;28;19914;-69
2022/12/01 10:11:08;;;;;;;;;;;;;;;;;;5011677;28;20011;-71
2022/12/01 10:13:33;;;;;;;;;;;;;;;;;;5007378;28;20365;-71
2022/12/01 10:15:58;;;;;;;;;;;;;;;;;;5012610;28;19913;-70
2022/12/01 10:18:24;;;;;;;;;;;;;;;;;;5011900;28;19917;-70
2022/12/01 10:20:49;;;;;;;;;;;;;;;;;;5009202;28;19925;-69
2022/12/01 10:23:14;;;;;;;;;;;;;;;;;;5012874;28;19910;-69
2022/12/01 10:25:39;;;;;;;;;;;;;;;;;;5012308;28;19963;-71
2022/12/01 10:28:04;;;;;;;;;;;;;;;;;;5017535;28;19909;-71
2022/12/01 10:30:29;;;;;;;;;;;;;;;;;;5010320;28;20387;-72
2022/12/01 10:32:56;;;;;;;;;;;;;;;;;;5009924;28;19914;-71
2022/12/01 10:35:21;;;;;;;;;;;;;;;;;;5011171;28;19917;-70
2022/12/01 10:37:46;;;;;;;;;;;;;;;;;;5014287;28;20407;-69
2022/12/01 10:40:11;;;;;;;;;;;;;;;;;;5016999;28;19914;-70
2022/12/01 10:42:36;;;;;;;;;;;;;;;;;;5012590;28;19941;-71
2022/12/01 10:45:02;;;;;;;;;;;;;;;;;;5009842;28;20004;-82
2022/12/01 10:47:27;;;;;;;;;;;;;;;;;;5014722;28;19996;-89
2022/12/01 10:49:52;;;;;;;;;;;;;;;;;;5018192;28;19959;-82
2022/12/01 10:52:17;;;;;;;;;;;;;;;;;;5016428;28;19957;-85
2022/12/01 10:54:43;;;;;;;;;;;;;;;;;;5019532;28;20368;-82
2022/12/01 10:57:08;;;;;;;;;;;;;;;;;;5018669;28;19913;-85
2022/12/01 10:59:33;;;;;;;;;;;;;;;;;;5018638;28;19939;-83
2022/12/01 11:01:58;;;;;;;;;;;;;;;;;;5020757;28;19976;-73
2022/12/01 11:04:23;;;;;;;;;;;;;;;;;;5016878;28;19952;-71
2022/12/01 11:06:49;;;;;;;;;;;;;;;;;;5013464;28;19945;-76
2022/12/01 11:09:14;;;;;;;;;;;;;;;;;;5012535;28;20356;-69
2022/12/01 11:11:39;;;;;;;;;;;;;;;;;;5019275;28;19918;-68
2022/12/01 11:14:04;;;;;;;;;;;;;;;;;;5012716;28;20332;-72
2022/12/01 11:16:29;;;;;;;;;;;;;;;;;;5014544;28;19960;-71
2022/12/01 11:18:54;;;;;;;;;;;;;;;;;;5014963;28;19917;-77
2022/12/01 11:21:19;;;;;;;;;;;;;;;;;;5015101;28;20386;-71
2022/12/01 11:23:45;;;;;;;;;;;;;;;;;;5015692;28;20352;-72
2022/12/01 11:26:10;;;;;;;;;;;;;;;;;;5018450;28;19952;-71
2022/12/01 11:28:35;;;;;;;;;;;;;;;;;;5018466;28;19913;-73
2022/12/01 11:31:00;;;;;;;;;;;;;;;;;;5017165;28;19917;-71
2022/12/01 11:33:25;;;;;;;;;;;;;;;;;;5016206;28;20077;-70
2022/12/01 11:35:50;;;;;;;;;;;;;;;;;;5012840;28;19948;-76
2022/12/01 11:38:15;;;;;;;;;;;;;;;;;;5014501;28;19917;-72
2022/12/01 11:40:40;;;;;;;;;;;;;;;;;;5013491;28;19917;-78
2022/12/01 11:43:06;;;;;;;;;;;;;;;;;;5013822;28;19924;-77
2022/12/01 11:45:31;;;;;;;;;;;;;;;;;;5010457;28;19917;-75
2022/12/01 11:47:56;;;;;;;;;;;;;;;;;;5015714;28;19932;-75
2022/12/01 11:50:21;;;;;;;;;;;;;;;;;;5014513;28;19920;-77
2022/12/01 11:52:46;;;;;;;;;;;;;;;;;;5012018;28;19914;-80
2022/12/01 11:55:11;;;;;;;;;;;;;;;;;;5011300;28;20629;-71
2022/12/01 11:57:36;;;;;;;;;;;;;;;;;;5016346;28;19988;-81
2022/12/01 12:00:01;;;;;;;;;;;;;;;;;;5008793;28;20047;-80
2022/12/01 12:02:26;;;;;;;;;;;;;;;;;;5011646;28;19988;-75
2022/12/01 12:04:52;;;;;;;;;;;;;;;;;;5013046;28;19914;-72
2022/12/01 12:07:17;;;;;;;;;;;;;;;;;;5008865;28;19913;-70
2022/12/01 12:09:42;;;;;;;;;;;;;;;;;;5018489;28;19921;-71
2022/12/01 12:12:07;;;;;;;;;;;;;;;;;;5012762;28;20011;-80
2022/12/01 12:14:32;;;;;;;;;;;;;;;;;;5012161;28;20324;-71
2022/12/01 12:16:57;;;;;;;;;;;;;;;;;;5007345;28;19921;-71
2022/12/01 12:19:22;;;;;;;;;;;;;;;;;;5009553;28;19927;-70
2022/12/01 12:21:48;;;;;;;;;;;;;;;;;;5008782;28;19922;-69
2022/12/01 12:24:13;;;;;;;;;;;;;;;;;;5010947;28;19936;-70
2022/12/01 12:26:38;;;;;;;;;;;;;;;;;;5010018;28;19940;-70
2022/12/01 12:29:03;;;;;;;;;;;;;;;;;;5008524;28;20388;-69
2022/12/01 12:31:29;;;;;;;;;;;;;;;;;;5014068;28;19914;-78
2022/12/01 12:33:54;;;;;;;;;;;;;;;;;;5014265;28;19922;-79
2022/12/01 12:36:19;;;;;;;;;;;;;;;;;;5017576;28;19963;-77
2022/12/01 12:38:44;;;;;;;;;;;;;;;;;;5009818;28;19949;-77
2022/12/01 12:41:09;;;;;;;;;;;;;;;;;;5011482;28;19980;-79
2022/12/01 12:43:35;;;;;;;;;;;;;;;;;;5008520;28;19952;-78
2022/12/01 12:46:00;;;;;;;;;;;;;;;;;;5009699;28;19913;-78
2022/12/01 12:48:25;;;;;;;;;;;;;;;;;;5008428;28;19970;-79
2022/12/01 12:50:50;;;;;;;;;;;;;;;;;;5008588;28;19913;-84
2022/12/01 12:53:15;;;;;;;;;;;;;;;;;;5010166;28;19967;-72
2022/12/01 12:55:40;;;;;;;;;;;;;;;;;;5007397;28;20370;-73
2022/12/01 12:58:05;;;;;;;;;;;;;;;;;;5009596;28;19913;-71
2022/12/01 13:00:30;;;;;;;;;;;;;;;;;;5008426;28;19921;-71
2022/12/01 13:02:56;;;;;;;;;;;;;;;;;;5006566;28;19922;-72
2022/12/01 13:05:21;;;;;;;;;;;;;;;;;;5025284;28;19917;-72
2022/12/01 13:07:46;;;;;;;;;;;;;;;;;;5017687;28;19920;-71
2022/12/01 13:10:11;;;;;;;;;;;;;;;;;;5010943;28;20265;-69
2022/12/01 13:12:36;;;;;;;;;;;;;;;;;;5010666;28;19909;-69
2022/12/01 13:15:01;;;;;;;;;;;;;;;;;;5011117;28;20669;-71
2022/12/01 13:17:27;;;;;;;;;;;;;;;;;;5006935;28;19921;-72
2022/12/01 13:19:52;;;;;;;;;;;;;;;;;;5010694;28;19940;-70
2022/12/01 13:22:17;;;;;;;;;;;;;;;;;;5008149;28;19923;-68
2022/12/01 13:24:42;;;;;;;;;;;;;;;;;;5009724;28;19971;-69
2022/12/01 13:27:07;;;;;;;;;;;;;;;;;;5011244;28;19921;-71
2022/12/01 13:29:32;;;;;;;;;;;;;;;;;;5010946;28;19971;-73
2022/12/01 13:31:58;;;;;;;;;;;;;;;;;;5007105;28;19921;-72
2022/12/01 13:34:23;;;;;;;;;;;;;;;;;;5011603;28;19983;-71
2022/12/01 13:36:48;;;;;;;;;;;;;;;;;;5007620;28;19917;-70
2022/12/01 13:39:13;;;;;;;;;;;;;;;;;;5013080;28;19921;-71
2022/12/01 13:41:38;;;;;;;;;;;;;;;;;;5013113;28;19921;-71
2022/12/01 13:44:04;;;;;;;;;;;;;;;;;;5015429;28;19913;-72
2022/12/01 13:46:29;;;;;;;;;;;;;;;;;;5014500;28;19913;-83
2022/12/01 13:48:55;;;;;;;;;;;;;;;;;;5010421;28;20011;-70
2022/12/01 13:51:20;;;;;;;;;;;;;;;;;;5023999;28;19941;-71
2022/12/01 13:53:45;;;;;;;;;;;;;;;;;;5005972;28;19968;-69
2022/12/01 13:56:10;;;;;;;;;;;;;;;;;;5009207;28;19920;-70
2022/12/01 13:58:36;;;;;;;;;;;;;;;;;;5010291;28;19914;-70
2022/12/01 14:01:01;;;;;;;;;;;;;;;;;;5005871;28;19921;-72
2022/12/01 14:03:26;;;;;;;;;;;;;;;;;;5007858;28;19964;-70
2022/12/01 14:05:51;;;;;;;;;;;;;;;;;;5010287;28;19979;-69
2022/12/01 14:08:17;;;;;;;;;;;;;;;;;;5007305;28;19917;-69
2022/12/01 14:10:42;;;;;;;;;;;;;;;;;;5013603;28;19940;-70
2022/12/01 14:13:07;;;;;;;;;;;;;;;;;;5018038;28;19924;-68
2022/12/01 14:15:32;;;;;;;;;;;;;;;;;;5006194;28;20374;-70
2022/12/01 14:17:57;;;;;;;;;;;;;;;;;;5009840;28;19952;-67
2022/12/01 14:20:22;;;;;;;;;;;;;;;;;;5011732;28;19945;-70
2022/12/01 14:22:49;;;;;;;;;;;;;;;;;;5016707;28;19957;-70
2022/12/01 14:25:14;;;;;;;;;;;;;;;;;;5010931;28;20067;-72
2022/12/01 14:27:39;;;;;;;;;;;;;;;;;;5016117;28;20028;-71
2022/12/01 14:30:04;;;;;;;;;;;;;;;;;;5012923;28;19968;-71
2022/12/01 14:32:29;;;;;;;;;;;;;;;;;;5015840;28;19986;-71
2022/12/01 14:34:54;;;;;;;;;;;;;;;;;;5008016;28;19917;-71
2022/12/01 14:37:20;;;;;;;;;;;;;;;;;;5012003;28;19945;-71
2022/12/01 14:39:45;;;;;;;;;;;;;;;;;;5012921;28;19928;-70
2022/12/01 14:42:10;;;;;;;;;;;;;;;;;;5014807;28;19984;-79
2022/12/01 14:44:35;;;;;;;;;;;;;;;;;;5019041;28;19914;-82
2022/12/01 14:47:00;;;;;;;;;;;;;;;;;;5012061;28;20005;-85
2022/12/01 14:49:26;;;;;;;;;;;;;;;;;;5011771;28;20371;-84
2022/12/01 14:51:51;;;;;;;;;;;;;;;;;;5013869;28;19920;-85
2022/12/01 14:54:16;;;;;;;;;;;;;;;;;;5013444;28;19914;-83
2022/12/01 14:56:42;;;;;;;;;;;;;;;;;;5013101;28;19914;-82
2022/12/01 14:59:07;;;;;;;;;;;;;;;;;;5015263;28;21750;-73
2022/12/01 15:01:33;;;;;;;;;;;;;;;;;;5013300;28;21759;-72
2022/12/01 15:03:58;;;;;;;;;;;;;;;;;;5008432;28;19913;-77
2022/12/01 15:06:23;;;;;;;;;;;;;;;;;;5010672;28;20348;-71
2022/12/01 15:08:48;;;;;;;;;;;;;;;;;;5012148;28;19917;-71
2022/12/01 15:11:14;;;;;;;;;;;;;;;;;;5010156;28;20000;-71
2022/12/01 15:13:39;;;;;;;;;;;;;;;;;;5010136;28;20682;-71
2022/12/01 15:16:04;;;;;;;;;;;;;;;;;;5017413;28;19917;-73
2022/12/01 15:18:29;;;;;;;;;;;;;;;;;;5015792;28;19910;-71
2022/12/01 15:20:54;;;;;;;;;;;;;;;;;;5014563;28;19972;-71
2022/12/01 15:23:19;;;;;;;;;;;;;;;;;;5002597;28;20701;-70
2022/12/01 15:25:44;;;;;;;;;;;;;;;;;;5023535;28;20304;-73
2022/12/01 15:28:10;;;;;;;;;;;;;;;;;;5005723;28;19929;-72
2022/12/01 15:30:35;;;;;;;;;;;;;;;;;;5021622;28;19913;-71
2022/12/01 15:33:00;;;;;;;;;;;;;;;;;;5014008;28;19980;-75
2022/12/01 15:35:25;;;;;;;;;;;;;;;;;;5027645;28;20383;-74
2022/12/01 15:37:51;;;;;;;;;;;;;;;;;;5012837;28;19924;-71
2022/12/01 15:40:16;;;;;;;;;;;;;;;;;;5011818;28;20332;-72
2022/12/01 15:42:41;;;;;;;;;;;;;;;;;;5013088;28;19917;-72
2022/12/01 15:45:06;;;;;;;;;;;;;;;;;;5017900;28;19978;-72
2022/12/01 15:47:32;;;;;;;;;;;;;;;;;;5018952;28;19946;-72
2022/12/01 15:49:57;;;;;;;;;;;;;;;;;;5014224;28;19918;-71
2022/12/01 15:52:22;;;;;;;;;;;;;;;;;;5011963;28;19921;-71
2022/12/01 15:54:47;;;;;;;;;;;;;;;;;;5012343;28;19963;-70
2022/12/01 15:57:12;;;;;;;;;;;;;;;;;;5014832;28;20214;-77
2022/12/01 15:59:38;;;;;;;;;;;;;;;;;;5017317;28;19971;-77
2022/12/01 16:02:03;;;;;;;;;;;;;;;;;;5014625;28;19963;-76
2022/12/01 16:04:28;;;;;;;;;;;;;;;;;;5014389;28;19921;-76
2022/12/01 16:06:53;;;;;;;;;;;;;;;;;;5015853;28;19917;-77
2022/12/01 16:09:18;;;;;;;;;;;;;;;;;;5017220;28;20382;-77
2022/12/01 16:11:43;;;;;;;;;;;;;;;;;;5015059;28;19913;-71
2022/12/01 16:14:08;;;;;;;;;;;;;;;;;;5014883;28;19963;-82
2022/12/01 16:16:34;;;;;;;;;;;;;;;;;;5010551;28;20733;-70
2022/12/01 16:18:59;;;;;;;;;;;;;;;;;;5016752;28;19991;-70
2022/12/01 16:21:24;;;;;;;;;;;;;;;;;;5014925;28;19925;-71
2022/12/01 16:23:49;;;;;;;;;;;;;;;;;;5027718;28;20008;-70
2022/12/01 16:26:14;;;;;;;;;;;;;;;;;;5006183;28;19921;-71
2022/12/01 16:28:41;;;;;;;;;;;;;;;;;;5013287;28;19921;-70
2022/12/01 16:31:06;;;;;;;;;;;;;;;;;;5012391;28;19914;-70
2022/12/01 16:33:31;;;;;;;;;;;;;;;;;;5016838;28;20411;-78
2022/12/01 16:35:56;;;;;;;;;;;;;;;;;;5010218;28;19937;-76
2022/12/01 16:38:21;;;;;;;;;;;;;;;;;;5013611;28;19913;-78
2022/12/01 16:40:47;;;;;;;;;;;;;;;;;;5014898;28;20058;-78